createdAt,value
2023-03-20T00:01:30.891Z,25.26
2023-03-20T00:04:01.097Z,25.25
2023-03-20T00:06:30.993Z,25.23
2023-03-20T00:09:09.044Z,25.25
2023-03-20T00:11:50.330Z,25.26
2023-03-20T00:14:20.506Z,25.19
2023-03-20T00:16:51.769Z,25.24
2023-03-20T00:19:24.874Z,25.25
2023-03-20T00:21:55.987Z,25.25
2023-03-20T00:24:27.259Z,25.26
2023-03-20T00:27:03.579Z,25.25
2023-03-20T00:29:33.594Z,25.27
2023-03-20T00:32:03.440Z,25.25
2023-03-20T00:34:33.330Z,25.25
2023-03-20T00:37:03.527Z,25.26
2023-03-20T00:39:36.176Z,25.28
2023-03-20T00:42:25.669Z,25.25
2023-03-20T00:45:45.723Z,25.25
2023-03-20T00:48:40.015Z,25.23
2023-03-20T00:52:17.227Z,25.24
2023-03-20T00:54:35.909Z,25.26
2023-03-20T00:57:37.500Z,25.25
2023-03-20T01:00:38.717Z,25.24
2023-03-20T01:03:43.443Z,25.23
2023-03-20T01:06:27.415Z,25.06
2023-03-20T01:09:18.347Z,25.14
2023-03-20T01:12:05.629Z,25.13
2023-03-20T01:14:35.785Z,25.19
2023-03-20T01:17:05.626Z,25.21
2023-03-20T01:19:35.539Z,25.20
2023-03-20T01:25:17.083Z,25.11
2023-03-20T01:27:52.271Z,25.09
2023-03-20T01:30:26.233Z,25.09
2023-03-20T01:33:01.803Z,25.08
2023-03-20T01:35:33.118Z,25.07
2023-03-20T01:38:03.140Z,25.04
2023-03-20T01:40:39.704Z,25.06
2023-03-20T01:43:17.923Z,25.08
2023-03-20T01:46:00.968Z,25.05
2023-03-20T01:48:40.658Z,25.04
2023-03-20T01:51:45.384Z,25.06
2023-03-20T01:54:20.140Z,25.08
2023-03-20T01:57:00.495Z,25.07
2023-03-20T01:59:38.077Z,25.06
2023-03-20T02:02:09.133Z,25.05
2023-03-20T02:04:42.234Z,25.03
2023-03-20T02:07:33.125Z,25.03
2023-03-20T02:10:15.261Z,25.04
2023-03-20T02:12:51.881Z,25.01
2023-03-20T02:15:29.426Z,25.02
2023-03-20T02:17:59.692Z,25.01
2023-03-20T02:20:35.412Z,25.00
2023-03-20T02:23:38.450Z,25.09
2023-03-20T02:26:15.133Z,25.04
2023-03-20T02:29:04.546Z,25.02
2023-03-20T02:38:17.377Z,25.03
2023-03-20T02:41:01.823Z,25.04
2023-03-20T02:43:55.123Z,25.03
2023-03-20T02:47:00.715Z,25.04
2023-03-20T02:53:13.970Z,25.33
2023-03-20T02:55:46.268Z,25.52
2023-03-20T02:58:24.137Z,25.58
2023-03-20T03:01:03.037Z,25.50
2023-03-20T03:03:46.735Z,25.53
2023-03-20T03:09:38.421Z,25.49
2023-03-20T03:18:38.105Z,25.77
2023-03-20T03:21:16.426Z,25.78
2023-03-20T03:24:10.927Z,25.69
2023-03-20T03:26:42.810Z,25.63
2023-03-20T03:29:17.832Z,25.57
2023-03-20T03:31:49.022Z,25.55
2023-03-20T03:37:28.593Z,25.75
2023-03-20T03:43:16.670Z,25.75
2023-03-20T03:46:05.689Z,25.94
2023-03-20T03:48:45.424Z,25.83
2023-03-20T03:54:56.848Z,25.74
2023-03-20T03:57:45.582Z,25.98
2023-03-20T04:00:22.440Z,26.40
2023-03-20T04:02:53.698Z,26.23
2023-03-20T04:05:25.488Z,26.04
2023-03-20T04:08:00.591Z,25.89
2023-03-20T04:10:32.787Z,25.82
2023-03-20T04:13:03.853Z,25.72
2023-03-20T04:15:42.177Z,25.70
2023-03-20T04:18:18.347Z,25.73
2023-03-20T04:20:49.657Z,25.66
2023-03-20T04:23:20.829Z,25.64
2023-03-20T04:25:55.780Z,25.58
2023-03-20T04:28:25.486Z,25.55
2023-03-20T04:31:01.747Z,25.49
2023-03-20T04:36:20.939Z,25.42
2023-03-20T04:38:52.048Z,25.38
2023-03-20T04:41:51.457Z,25.37
2023-03-20T04:44:22.936Z,25.35
2023-03-20T04:47:00.316Z,25.34
2023-03-20T04:49:31.205Z,25.34
2023-03-20T04:52:01.764Z,25.35
2023-03-20T04:54:53.683Z,25.31
2023-03-20T04:57:24.392Z,25.27
2023-03-20T04:59:55.868Z,25.29
2023-03-20T05:02:27.613Z,25.28
2023-03-20T05:04:58.709Z,25.25
2023-03-20T05:07:29.822Z,25.25
2023-03-20T05:10:09.571Z,25.25
2023-03-20T05:12:58.822Z,25.24
2023-03-20T05:15:29.085Z,25.24
2023-03-20T05:18:00.998Z,25.20
2023-03-20T05:20:31.885Z,25.22
2023-03-20T05:23:06.370Z,25.20
2023-03-20T05:25:50.947Z,25.21
2023-03-20T05:28:33.978Z,25.18
2023-03-20T05:31:21.703Z,25.17
2023-03-20T05:34:20.954Z,25.16
2023-03-20T05:36:51.912Z,25.17
2023-03-20T05:39:23.673Z,25.16
2023-03-20T05:41:54.849Z,25.18
2023-03-20T05:44:39.149Z,25.16
2023-03-20T05:47:39.343Z,25.17
2023-03-20T05:50:11.167Z,25.15
2023-03-20T05:52:42.588Z,25.17
2023-03-20T05:55:14.915Z,25.15
2023-03-20T05:58:03.300Z,25.17
2023-03-20T06:00:35.549Z,25.14
2023-03-20T06:03:07.973Z,25.14
2023-03-20T06:05:39.051Z,25.16
2023-03-20T06:08:11.261Z,25.17
2023-03-20T06:10:43.856Z,25.17
2023-03-20T06:13:26.820Z,25.16
2023-03-20T06:16:05.904Z,25.18
2023-03-20T06:18:39.840Z,25.17
2023-03-20T06:21:11.964Z,25.18
2023-03-20T06:23:44.189Z,25.21
2023-03-20T06:26:16.614Z,25.20
2023-03-20T06:28:48.039Z,25.21
2023-03-20T06:31:19.076Z,25.19
2023-03-20T06:34:04.580Z,25.19
2023-03-20T06:36:35.573Z,25.20
2023-03-20T06:39:06.540Z,25.17
2023-03-20T06:41:37.814Z,25.19
2023-03-20T06:44:10.039Z,25.18
2023-03-20T06:46:41.211Z,25.17
2023-03-20T06:49:15.682Z,25.18
2023-03-20T06:51:46.197Z,25.18
2023-03-20T06:54:17.927Z,25.19
2023-03-20T06:56:51.363Z,25.22
2023-03-20T06:59:25.755Z,25.19
2023-03-20T07:01:56.818Z,25.20
2023-03-20T07:04:29.080Z,25.23
2023-03-20T07:07:12.979Z,25.18
2023-03-20T07:09:44.225Z,25.18
2023-03-20T07:12:20.194Z,25.18
2023-03-20T07:14:52.289Z,25.17
2023-03-20T07:17:23.925Z,25.25
2023-03-20T07:19:55.936Z,25.23
2023-03-20T07:22:31.851Z,25.23
2023-03-20T07:25:09.741Z,25.23
2023-03-20T07:27:41.317Z,25.23
2023-03-20T07:30:15.004Z,25.26
2023-03-20T07:32:47.983Z,25.25
2023-03-20T07:35:21.228Z,25.25
2023-03-20T07:37:53.096Z,25.27
2023-03-20T07:40:25.315Z,25.26
2023-03-20T07:42:56.696Z,25.24
2023-03-20T07:45:27.910Z,25.26
2023-03-20T07:47:58.408Z,25.26
2023-03-20T07:50:28.978Z,25.26
2023-03-20T07:53:04.474Z,25.26
2023-03-20T07:55:36.391Z,25.24
2023-03-20T07:58:21.184Z,25.26
2023-03-20T08:00:52.263Z,25.26
2023-03-20T08:03:24.123Z,25.24
2023-03-20T08:06:16.128Z,25.26
2023-03-20T08:08:48.219Z,25.28
2023-03-20T08:11:21.064Z,25.29
2023-03-20T08:13:54.515Z,25.28
2023-03-20T08:16:27.055Z,25.33
2023-03-20T08:18:59.263Z,25.39
2023-03-20T08:21:33.224Z,25.44
2023-03-20T08:24:04.532Z,25.46
2023-03-20T08:26:36.042Z,25.46
2023-03-20T08:29:08.551Z,25.47
2023-03-20T08:31:40.237Z,25.47
2023-03-20T08:36:54.303Z,25.46
2023-03-20T08:39:25.999Z,25.43
2023-03-20T08:41:58.399Z,25.44
2023-03-20T08:44:30.337Z,25.44
2023-03-20T08:50:23.588Z,25.40
2023-03-20T08:52:55.018Z,25.41
2023-03-20T08:55:28.681Z,25.40
2023-03-20T08:58:00.689Z,25.39
2023-03-20T09:00:32.276Z,25.40
2023-03-20T09:03:05.147Z,25.36
2023-03-20T09:05:38.802Z,25.35
2023-03-20T09:08:10.960Z,25.33
2023-03-20T09:10:44.652Z,25.26
2023-03-20T09:13:26.753Z,25.24
2023-03-20T09:15:50.404Z,25.19
2023-03-20T09:18:22.974Z,25.16
2023-03-20T09:20:54.293Z,25.18
2023-03-20T09:23:26.034Z,25.17
2023-03-20T09:25:57.041Z,25.17
2023-03-20T09:28:30.079Z,25.15
2023-03-20T09:31:01.346Z,25.16
2023-03-20T09:33:32.250Z,25.21
2023-03-20T09:36:05.002Z,25.16
2023-03-20T09:38:35.398Z,25.21
2023-03-20T09:41:05.825Z,25.24
2023-03-20T09:43:44.947Z,25.21
2023-03-20T09:46:48.858Z,25.18
2023-03-20T09:49:57.318Z,25.14
2023-03-20T09:52:46.733Z,25.13
2023-03-20T09:55:18.563Z,25.11
2023-03-20T09:57:56.812Z,25.08
2023-03-20T10:00:47.609Z,25.10
2023-03-20T10:03:23.323Z,25.16
2023-03-20T10:06:06.762Z,25.17
2023-03-20T10:08:37.624Z,25.13
2023-03-20T10:11:36.236Z,25.14
2023-03-20T10:14:39.317Z,25.13
2023-03-20T10:17:43.148Z,25.11
2023-03-20T10:20:27.927Z,25.10
2023-03-20T10:23:51.520Z,25.12
2023-03-20T10:26:25.656Z,25.10
2023-03-20T10:29:26.669Z,25.15
2023-03-20T10:32:19.942Z,25.17
2023-03-20T10:35:16.442Z,25.16
2023-03-20T10:41:31.872Z,25.09
2023-03-20T10:44:48.849Z,25.09
2023-03-20T10:47:20.509Z,25.15
2023-03-20T10:53:16.820Z,25.19
2023-03-20T10:56:40.319Z,25.15
2023-03-20T10:59:45.086Z,25.15
2023-03-20T11:05:32.675Z,25.13
2023-03-20T11:08:09.284Z,25.17
2023-03-20T11:16:37.577Z,25.30
2023-03-20T11:19:12.363Z,25.30
2023-03-20T11:21:49.050Z,25.37
2023-03-20T11:24:36.686Z,25.75
2023-03-20T11:27:12.814Z,25.97
2023-03-20T11:29:45.904Z,26.04
2023-03-20T11:32:30.342Z,26.05
2023-03-20T11:35:20.774Z,26.09
2023-03-20T11:38:08.299Z,26.15
2023-03-20T11:40:39.295Z,26.17
2023-03-20T11:43:24.099Z,26.18
2023-03-20T11:46:01.556Z,26.15
2023-03-20T11:48:42.994Z,26.07
2023-03-20T11:51:19.289Z,25.96
2023-03-20T11:54:08.275Z,25.88
2023-03-20T11:56:38.915Z,25.94
2023-03-20T12:02:36.535Z,26.01
2023-03-20T12:05:21.402Z,25.97
2023-03-20T12:08:10.861Z,25.51
2023-03-20T12:10:41.464Z,25.32
2023-03-20T12:13:31.657Z,25.47
2023-03-20T12:16:06.571Z,25.50
2023-03-20T12:18:42.518Z,25.52
2023-03-20T12:21:18.052Z,25.53
2023-03-20T12:24:06.871Z,25.50
2023-03-20T12:26:54.145Z,25.29
2023-03-20T12:29:32.392Z,25.06
2023-03-20T12:32:29.274Z,24.99
2023-03-20T12:35:11.064Z,25.26
2023-03-20T12:37:40.922Z,25.32
2023-03-20T12:40:13.741Z,25.36
2023-03-20T12:42:55.932Z,25.15
2023-03-20T12:45:44.712Z,24.90
2023-03-20T12:51:31.406Z,24.91
2023-03-20T12:54:15.878Z,25.03
2023-03-20T12:57:25.313Z,25.07
2023-03-20T13:00:00.715Z,24.91
2023-03-20T13:02:54.088Z,24.83
2023-03-20T13:05:29.410Z,24.64
2023-03-20T13:11:45.086Z,24.57
2023-03-20T13:14:59.992Z,24.69
2023-03-20T13:17:41.252Z,24.68
2023-03-20T13:29:43.409Z,24.36
2023-03-20T13:32:45.791Z,24.38
2023-03-20T13:35:30.985Z,24.62
2023-03-20T13:38:48.905Z,24.59
2023-03-20T13:40:37.990Z,24.39
2023-03-20T13:43:28.694Z,24.34
2023-03-20T13:46:08.220Z,24.25
2023-03-20T13:48:41.951Z,24.23
2023-03-20T13:51:18.386Z,24.22
2023-03-20T13:53:53.638Z,24.22
2023-03-20T13:56:39.476Z,24.15
2023-03-20T13:59:33.453Z,24.28
2023-03-20T14:02:42.056Z,24.21
2023-03-20T14:05:47.316Z,24.32
2023-03-20T14:08:55.822Z,24.05
2023-03-20T14:11:53.941Z,24.08
2023-03-20T14:14:54.021Z,24.05
2023-03-20T14:17:45.300Z,24.22
2023-03-20T14:23:53.656Z,24.17
2023-03-20T14:32:57.181Z,24.08
2023-03-20T14:36:02.673Z,24.10
2023-03-20T14:38:54.280Z,24.20
2023-03-20T14:41:41.053Z,24.22
2023-03-20T14:44:59.435Z,23.97
2023-03-20T14:48:23.885Z,24.10
2023-03-20T14:50:56.782Z,24.08
2023-03-20T14:54:06.045Z,24.37
2023-03-20T14:56:36.477Z,24.48
2023-03-20T14:59:07.240Z,24.48
2023-03-20T15:01:48.236Z,24.45
2023-03-20T15:04:24.330Z,24.35
2023-03-20T15:06:57.304Z,24.22
2023-03-20T15:09:27.226Z,24.14
2023-03-20T15:14:59.993Z,24.39
2023-03-20T15:17:53.944Z,24.39
2023-03-20T15:20:40.494Z,24.38
2023-03-20T15:23:14.356Z,24.44
2023-03-20T15:25:46.360Z,24.44
2023-03-20T15:28:24.371Z,24.44
2023-03-20T15:30:55.636Z,24.45
2023-03-20T15:33:30.548Z,24.53
2023-03-20T15:36:10.157Z,24.47
2023-03-20T15:38:44.746Z,24.45
2023-03-20T15:41:20.266Z,24.42
2023-03-20T15:43:50.864Z,24.43
2023-03-20T15:46:24.513Z,24.39
2023-03-20T15:48:56.636Z,24.43
2023-03-20T15:51:27.253Z,24.45
2023-03-20T15:54:05.369Z,24.51
2023-03-20T15:56:55.018Z,24.52
2023-03-20T15:59:53.827Z,24.47
2023-03-20T16:02:24.163Z,24.47
2023-03-20T16:05:00.158Z,24.51
2023-03-20T16:07:32.429Z,24.57
2023-03-20T16:10:02.605Z,24.59
2023-03-20T16:12:38.637Z,24.57
2023-03-20T16:15:19.289Z,24.62
2023-03-20T16:17:52.697Z,24.65
2023-03-20T16:20:23.232Z,24.68
2023-03-20T16:22:54.331Z,24.69
2023-03-20T16:25:24.283Z,24.74
2023-03-20T16:27:54.441Z,24.70
2023-03-20T16:30:26.906Z,24.74
2023-03-20T16:33:16.535Z,24.81
2023-03-20T16:36:00.684Z,24.80
2023-03-20T16:39:08.508Z,24.83
2023-03-20T16:41:55.551Z,24.80
2023-03-20T16:44:28.166Z,24.80
2023-03-20T16:47:02.944Z,24.76
2023-03-20T16:49:45.196Z,24.75
2023-03-20T16:52:15.555Z,24.78
2023-03-20T16:54:45.576Z,24.86
2023-03-20T16:57:35.680Z,24.93
2023-03-20T17:00:11.838Z,24.93
2023-03-20T17:03:11.877Z,24.91
2023-03-20T17:06:12.840Z,24.96
2023-03-20T17:08:57.884Z,24.99
2023-03-20T17:11:33.684Z,24.99
2023-03-20T17:14:05.038Z,25.00
2023-03-20T17:16:35.133Z,24.95
2023-03-20T17:19:10.231Z,24.97
2023-03-20T17:21:41.985Z,25.03
2023-03-20T17:24:20.620Z,25.08
2023-03-20T17:26:57.658Z,25.07
2023-03-20T17:29:27.622Z,25.05
2023-03-20T17:31:57.534Z,25.07
2023-03-20T17:34:27.741Z,25.06
2023-03-20T17:36:59.225Z,25.10
2023-03-20T17:39:29.203Z,25.12
2023-03-20T17:42:13.449Z,25.12
2023-03-20T17:44:43.486Z,25.13
2023-03-20T17:47:18.083Z,25.14
2023-03-20T17:49:48.493Z,25.14
2023-03-20T17:52:20.553Z,25.16
2023-03-20T17:54:50.583Z,25.12
2023-03-20T17:57:34.442Z,25.13
2023-03-20T18:00:08.227Z,25.12
2023-03-20T18:02:38.189Z,25.13
2023-03-20T18:05:08.724Z,25.13
2023-03-20T18:07:38.737Z,25.13
2023-03-20T18:10:09.127Z,25.18
2023-03-20T18:12:39.837Z,25.18
2023-03-20T18:15:14.061Z,25.19
2023-03-20T18:17:44.812Z,25.18
2023-03-20T18:20:20.655Z,25.22
2023-03-20T18:22:50.889Z,25.23
2023-03-20T18:25:23.044Z,25.25
2023-03-20T18:27:53.007Z,25.26
2023-03-20T18:30:35.060Z,25.30
2023-03-20T18:33:10.149Z,25.26
2023-03-20T18:35:40.209Z,25.28
2023-03-20T18:38:12.108Z,25.27
2023-03-20T18:40:43.384Z,25.29
2023-03-20T18:43:19.684Z,25.30
2023-03-20T18:45:50.078Z,25.28
2023-03-20T18:48:32.560Z,25.21
2023-03-20T18:51:20.576Z,25.26
2023-03-20T18:53:51.692Z,25.26
2023-03-20T18:56:23.692Z,25.30
2023-03-20T18:58:54.928Z,25.30
2023-03-20T19:01:26.500Z,25.31
2023-03-20T19:03:56.675Z,25.33
2023-03-20T19:06:26.768Z,25.31
2023-03-20T19:08:56.757Z,25.35
2023-03-20T19:11:27.200Z,25.42
2023-03-20T19:13:57.285Z,25.41
2023-03-20T19:16:51.828Z,25.44
2023-03-20T19:19:24.089Z,25.17
2023-03-20T19:22:28.493Z,24.54
2023-03-20T19:24:45.773Z,24.65
2023-03-20T19:30:44.482Z,25.09
2023-03-20T19:36:56.422Z,25.22
2023-03-20T19:40:08.186Z,25.28
2023-03-20T19:43:01.610Z,25.32
2023-03-20T19:46:07.763Z,25.34
2023-03-20T19:48:57.781Z,25.38
2023-03-20T19:51:47.687Z,25.38
2023-03-20T19:55:02.298Z,25.39
2023-03-20T20:03:56.078Z,25.49
2023-03-20T20:06:47.702Z,25.57
2023-03-20T20:10:06.641Z,25.60
2023-03-20T20:13:19.082Z,25.63
2023-03-20T20:15:54.740Z,25.60
2023-03-20T20:18:40.883Z,25.60
2023-03-20T20:23:43.334Z,25.63
2023-03-20T20:26:13.442Z,25.63
2023-03-20T20:28:43.327Z,25.65
2023-03-20T20:31:14.049Z,25.67
2023-03-20T20:34:10.004Z,25.68
2023-03-20T20:39:57.546Z,25.65
2023-03-20T20:42:53.506Z,25.69
2023-03-20T20:45:45.433Z,25.74
2023-03-20T20:51:04.622Z,25.83
2023-03-20T20:53:34.457Z,25.84
2023-03-20T20:56:04.463Z,25.84
2023-03-20T20:58:34.869Z,25.84
2023-03-20T21:01:22.418Z,25.80
2023-03-20T21:04:29.050Z,25.83
2023-03-20T21:07:10.347Z,25.80
2023-03-20T21:10:04.451Z,25.75
2023-03-20T21:13:04.507Z,25.74
2023-03-20T21:15:50.132Z,25.75
2023-03-20T21:18:30.998Z,25.75
2023-03-20T21:21:10.629Z,25.74
2023-03-20T21:23:41.002Z,25.74
2023-03-20T21:26:11.233Z,25.75
2023-03-20T21:28:41.390Z,25.74
2023-03-20T21:31:25.546Z,25.76
2023-03-20T21:34:17.905Z,25.75
2023-03-20T21:40:29.289Z,25.74
2023-03-20T21:43:13.746Z,25.72
2023-03-20T21:46:45.239Z,25.75
2023-03-20T21:53:12.489Z,25.69
2023-03-20T22:01:58.346Z,25.69
2023-03-20T22:08:09.567Z,25.72
2023-03-20T22:20:03.602Z,25.71
2023-03-20T22:29:07.194Z,25.63
2023-03-20T22:38:12.680Z,25.67
2023-03-20T22:41:00.760Z,25.85
2023-03-20T22:46:39.985Z,25.80
2023-03-20T22:48:59.946Z,25.75
2023-03-20T22:51:40.938Z,25.66
2023-03-20T22:54:05.592Z,25.66
2023-03-20T22:56:35.621Z,25.69
2023-03-20T22:59:05.700Z,25.70
2023-03-20T23:01:35.652Z,25.66
2023-03-20T23:04:47.394Z,25.71
2023-03-20T23:07:16.150Z,25.71
2023-03-20T23:12:33.879Z,25.69
2023-03-20T23:15:03.771Z,25.68
2023-03-20T23:17:33.685Z,25.69
2023-03-20T23:20:24.110Z,25.64
2023-03-20T23:22:57.830Z,25.55
2023-03-20T23:28:51.560Z,25.71
2023-03-20T23:31:26.087Z,25.72
2023-03-20T23:37:16.721Z,25.69
2023-03-20T23:39:46.641Z,25.73
2023-03-20T23:42:29.800Z,25.73
2023-03-20T23:44:56.429Z,25.74
2023-03-20T23:47:43.876Z,25.73
2023-03-20T23:50:02.967Z,25.71
2023-03-20T23:53:19.149Z,25.70
2023-03-20T23:55:44.721Z,25.69
